sensor_id;sensor_type;location;lat;lon;timestamp;pressure;altitude;pressure_sealevel;temperature;humidity
76434;BME280;65265;53.200;6.080;2023-05-07T00:01:29;101752.91;;;12.69;100.00
76434;BME280;65265;53.200;6.080;2023-05-07T00:06:20;101751.03;;;12.65;100.00
76434;BME280;65265;53.200;6.080;2023-05-07T00:11:13;101759.69;;;12.67;100.00
76434;BME280;65265;53.200;6.080;2023-05-07T00:16:05;101765.53;;;12.64;100.00
76434;BME280;65265;53.200;6.080;2023-05-07T00:20:56;101768.91;;;12.63;100.00
76434;BME280;65265;53.200;6.080;2023-05-07T00:25:48;101762.75;;;12.60;100.00
76434;BME280;65265;53.200;6.080;2023-05-07T00:30:41;101770.47;;;12.60;100.00
76434;BME280;65265;53.200;6.080;2023-05-07T00:35:32;101776.56;;;12.62;100.00
76434;BME280;65265;53.200;6.080;2023-05-07T00:40:23;101777.22;;;12.58;100.00
76434;BME280;65265;53.200;6.080;2023-05-07T00:45:16;101773.78;;;12.57;100.00
76434;BME280;65265;53.200;6.080;2023-05-07T00:50:10;101773.63;;;12.54;100.00
76434;BME280;65265;53.200;6.080;2023-05-07T00:55:05;101776.13;;;12.53;100.00
76434;BME280;65265;53.200;6.080;2023-05-07T00:59:57;101771.00;;;12.53;100.00
76434;BME280;65265;53.200;6.080;2023-05-07T01:04:49;101771.72;;;12.50;100.00
76434;BME280;65265;53.200;6.080;2023-05-07T01:09:42;101763.94;;;12.49;100.00
76434;BME280;65265;53.200;6.080;2023-05-07T01:14:33;101768.81;;;12.43;100.00
76434;BME280;65265;53.200;6.080;2023-05-07T01:19:26;101761.63;;;12.36;100.00
76434;BME280;65265;53.200;6.080;2023-05-07T01:24:19;101757.53;;;12.39;100.00
76434;BME280;65265;53.200;6.080;2023-05-07T01:29:11;101759.28;;;12.40;100.00
76434;BME280;65265;53.200;6.080;2023-05-07T01:34:03;101754.03;;;12.37;100.00
76434;BME280;65265;53.200;6.080;2023-05-07T01:38:56;101758.13;;;12.34;100.00
76434;BME280;65265;53.200;6.080;2023-05-07T01:43:51;101757.69;;;12.25;100.00
76434;BME280;65265;53.200;6.080;2023-05-07T01:48:44;101756.94;;;12.27;100.00
76434;BME280;65265;53.200;6.080;2023-05-07T01:53:36;101758.34;;;12.21;100.00
76434;BME280;65265;53.200;6.080;2023-05-07T01:58:28;101753.91;;;12.17;100.00
76434;BME280;65265;53.200;6.080;2023-05-07T02:03:21;101761.38;;;12.12;100.00
76434;BME280;65265;53.200;6.080;2023-05-07T02:08:12;101760.19;;;12.06;100.00
76434;BME280;65265;53.200;6.080;2023-05-07T02:13:03;101757.41;;;12.01;100.00
76434;BME280;65265;53.200;6.080;2023-05-07T02:17:59;101758.94;;;11.98;100.00
76434;BME280;65265;53.200;6.080;2023-05-07T02:22:52;101765.69;;;11.96;100.00
76434;BME280;65265;53.200;6.080;2023-05-07T02:27:44;101768.97;;;11.93;100.00
76434;BME280;65265;53.200;6.080;2023-05-07T02:32:35;101760.03;;;11.86;100.00
76434;BME280;65265;53.200;6.080;2023-05-07T02:37:27;101773.41;;;11.80;100.00
76434;BME280;65265;53.200;6.080;2023-05-07T02:42:19;101771.50;;;11.76;100.00
76434;BME280;65265;53.200;6.080;2023-05-07T02:47:11;101773.75;;;11.70;100.00
76434;BME280;65265;53.200;6.080;2023-05-07T02:52:03;101763.09;;;11.61;100.00
76434;BME280;65265;53.200;6.080;2023-05-07T02:56:54;101772.53;;;11.62;100.00
76434;BME280;65265;53.200;6.080;2023-05-07T03:01:47;101771.22;;;11.54;100.00
76434;BME280;65265;53.200;6.080;2023-05-07T03:06:39;101777.19;;;11.55;100.00
76434;BME280;65265;53.200;6.080;2023-05-07T03:11:30;101780.34;;;11.49;100.00
76434;BME280;65265;53.200;6.080;2023-05-07T03:16:22;101789.25;;;11.40;100.00
76434;BME280;65265;53.200;6.080;2023-05-07T03:21:15;101782.44;;;11.40;100.00
76434;BME280;65265;53.200;6.080;2023-05-07T03:26:06;101776.16;;;11.34;100.00
76434;BME280;65265;53.200;6.080;2023-05-07T03:30:57;101767.31;;;11.29;100.00
76434;BME280;65265;53.200;6.080;2023-05-07T03:35:49;101774.06;;;11.27;100.00
76434;BME280;65265;53.200;6.080;2023-05-07T03:40:42;101773.00;;;11.23;100.00
76434;BME280;65265;53.200;6.080;2023-05-07T03:45:33;101780.59;;;11.22;100.00
76434;BME280;65265;53.200;6.080;2023-05-07T03:50:25;101784.63;;;11.17;100.00
76434;BME280;65265;53.200;6.080;2023-05-07T03:55:16;101789.84;;;11.18;100.00
76434;BME280;65265;53.200;6.080;2023-05-07T04:00:10;101791.25;;;11.13;100.00
76434;BME280;65265;53.200;6.080;2023-05-07T04:05:02;101793.00;;;11.14;100.00
76434;BME280;65265;53.200;6.080;2023-05-07T04:09:54;101787.19;;;11.17;100.00
76434;BME280;65265;53.200;6.080;2023-05-07T04:14:45;101793.56;;;11.09;100.00
76434;BME280;65265;53.200;6.080;2023-05-07T04:19:39;101792.72;;;11.08;100.00
76434;BME280;65265;53.200;6.080;2023-05-07T04:24:35;101797.81;;;11.08;100.00
76434;BME280;65265;53.200;6.080;2023-05-07T04:29:26;101791.09;;;11.10;100.00
76434;BME280;65265;53.200;6.080;2023-05-07T04:34:18;101791.56;;;11.03;100.00
76434;BME280;65265;53.200;6.080;2023-05-07T04:39:12;101792.38;;;11.02;100.00
76434;BME280;65265;53.200;6.080;2023-05-07T04:44:04;101792.56;;;11.05;100.00
76434;BME280;65265;53.200;6.080;2023-05-07T04:48:56;101790.00;;;11.05;100.00
76434;BME280;65265;53.200;6.080;2023-05-07T04:53:47;101799.34;;;11.05;100.00
76434;BME280;65265;53.200;6.080;2023-05-07T04:58:40;101798.53;;;11.06;100.00
76434;BME280;65265;53.200;6.080;2023-05-07T05:03:31;101805.66;;;11.11;100.00
76434;BME280;65265;53.200;6.080;2023-05-07T05:08:23;101820.56;;;11.18;100.00
76434;BME280;65265;53.200;6.080;2023-05-07T05:13:14;101827.25;;;11.16;100.00
76434;BME280;65265;53.200;6.080;2023-05-07T05:18:07;101832.38;;;11.16;100.00
76434;BME280;65265;53.200;6.080;2023-05-07T05:22:59;101842.25;;;11.25;100.00
76434;BME280;65265;53.200;6.080;2023-05-07T05:27:50;101840.38;;;11.22;100.00
76434;BME280;65265;53.200;6.080;2023-05-07T05:32:41;101842.94;;;11.22;100.00
76434;BME280;65265;53.200;6.080;2023-05-07T05:37:34;101843.91;;;11.24;100.00
76434;BME280;65265;53.200;6.080;2023-05-07T05:42:26;101848.41;;;11.28;100.00
76434;BME280;65265;53.200;6.080;2023-05-07T05:47:17;101851.75;;;11.27;100.00
76434;BME280;65265;53.200;6.080;2023-05-07T05:52:11;101847.66;;;11.31;100.00
76434;BME280;65265;53.200;6.080;2023-05-07T05:57:05;101848.72;;;11.34;100.00
76434;BME280;65265;53.200;6.080;2023-05-07T06:01:56;101850.16;;;11.45;100.00
76434;BME280;65265;53.200;6.080;2023-05-07T06:06:48;101854.47;;;11.46;100.00
76434;BME280;65265;53.200;6.080;2023-05-07T06:11:39;101856.06;;;11.44;100.00
76434;BME280;65265;53.200;6.080;2023-05-07T06:16:32;101857.97;;;11.48;100.00
76434;BME280;65265;53.200;6.080;2023-05-07T06:21:24;101851.19;;;11.49;100.00
76434;BME280;65265;53.200;6.080;2023-05-07T06:26:15;101854.81;;;11.52;100.00
76434;BME280;65265;53.200;6.080;2023-05-07T06:31:13;101853.53;;;11.60;100.00
76434;BME280;65265;53.200;6.080;2023-05-07T06:36:07;101847.84;;;11.66;100.00
76434;BME280;65265;53.200;6.080;2023-05-07T06:40:58;101856.56;;;11.69;100.00
76434;BME280;65265;53.200;6.080;2023-05-07T06:45:49;101859.50;;;11.77;100.00
76434;BME280;65265;53.200;6.080;2023-05-07T06:50:41;101865.63;;;11.79;100.00
76434;BME280;65265;53.200;6.080;2023-05-07T06:55:34;101869.84;;;11.78;100.00
76434;BME280;65265;53.200;6.080;2023-05-07T07:00:26;101870.88;;;11.82;100.00
76434;BME280;65265;53.200;6.080;2023-05-07T07:05:17;101889.13;;;11.88;99.29
76434;BME280;65265;53.200;6.080;2023-05-07T07:10:09;101888.91;;;11.83;99.41
76434;BME280;65265;53.200;6.080;2023-05-07T07:15:02;101888.34;;;11.89;99.68
76434;BME280;65265;53.200;6.080;2023-05-07T07:19:54;101896.03;;;11.89;99.88
76434;BME280;65265;53.200;6.080;2023-05-07T07:24:45;101901.84;;;12.02;98.04
76434;BME280;65265;53.200;6.080;2023-05-07T07:29:37;101904.16;;;12.13;97.49
76434;BME280;65265;53.200;6.080;2023-05-07T07:34:30;101913.84;;;12.19;98.85
76434;BME280;65265;53.200;6.080;2023-05-07T07:39:21;101903.88;;;12.25;96.74
76434;BME280;65265;53.200;6.080;2023-05-07T07:44:12;101906.09;;;12.35;96.54
76434;BME280;65265;53.200;6.080;2023-05-07T07:49:04;101900.00;;;12.33;97.14
76434;BME280;65265;53.200;6.080;2023-05-07T07:53:57;101909.41;;;12.50;96.80
76434;BME280;65265;53.200;6.080;2023-05-07T07:58:48;101900.47;;;12.59;96.60
76434;BME280;65265;53.200;6.080;2023-05-07T08:03:39;101902.94;;;12.75;97.37
76434;BME280;65265;53.200;6.080;2023-05-07T08:08:31;101900.47;;;12.94;95.13
76434;BME280;65265;53.200;6.080;2023-05-07T08:13:23;101898.22;;;13.00;97.73
76434;BME280;65265;53.200;6.080;2023-05-07T08:18:15;101898.78;;;13.12;95.21
76434;BME280;65265;53.200;6.080;2023-05-07T08:23:06;101896.28;;;13.33;95.28
76434;BME280;65265;53.200;6.080;2023-05-07T08:27:58;101896.97;;;13.48;92.42
76434;BME280;65265;53.200;6.080;2023-05-07T08:32:51;101899.09;;;13.56;91.39
76434;BME280;65265;53.200;6.080;2023-05-07T08:37:42;101901.59;;;13.74;89.61
76434;BME280;65265;53.200;6.080;2023-05-07T08:42:35;101903.34;;;13.75;92.67
76434;BME280;65265;53.200;6.080;2023-05-07T08:47:32;101907.31;;;13.87;92.39
76434;BME280;65265;53.200;6.080;2023-05-07T08:52:26;101898.72;;;13.87;90.65
76434;BME280;65265;53.200;6.080;2023-05-07T08:57:18;101898.44;;;14.00;90.50
76434;BME280;65265;53.200;6.080;2023-05-07T09:02:11;101903.47;;;13.97;88.25
76434;BME280;65265;53.200;6.080;2023-05-07T09:07:02;101902.06;;;14.05;90.38
76434;BME280;65265;53.200;6.080;2023-05-07T09:11:58;101910.88;;;14.29;88.98
76434;BME280;65265;53.200;6.080;2023-05-07T09:16:51;101916.00;;;14.49;86.54
76434;BME280;65265;53.200;6.080;2023-05-07T09:21:44;101921.16;;;14.49;86.13
76434;BME280;65265;53.200;6.080;2023-05-07T09:26:35;101919.38;;;14.68;84.05
76434;BME280;65265;53.200;6.080;2023-05-07T09:31:28;101920.66;;;14.78;83.83
76434;BME280;65265;53.200;6.080;2023-05-07T09:36:20;101926.13;;;14.87;85.87
76434;BME280;65265;53.200;6.080;2023-05-07T09:41:12;101916.66;;;15.08;83.51
76434;BME280;65265;53.200;6.080;2023-05-07T09:46:06;101912.16;;;15.24;82.42
76434;BME280;65265;53.200;6.080;2023-05-07T09:51:02;101911.16;;;15.43;82.80
76434;BME280;65265;53.200;6.080;2023-05-07T09:55:54;101906.38;;;15.52;83.97
76434;BME280;65265;53.200;6.080;2023-05-07T10:00:47;101908.81;;;15.96;80.83
76434;BME280;65265;53.200;6.080;2023-05-07T10:05:40;101913.03;;;16.17;80.54
76434;BME280;65265;53.200;6.080;2023-05-07T10:10:33;101910.88;;;16.29;79.98
76434;BME280;65265;53.200;6.080;2023-05-07T10:15:26;101907.13;;;16.45;80.69
76434;BME280;65265;53.200;6.080;2023-05-07T10:20:17;101906.94;;;16.93;79.77
76434;BME280;65265;53.200;6.080;2023-05-07T10:25:14;101922.81;;;17.05;78.03
76434;BME280;65265;53.200;6.080;2023-05-07T10:30:15;101921.81;;;17.00;77.10
76434;BME280;65265;53.200;6.080;2023-05-07T10:35:15;101914.94;;;17.28;75.37
76434;BME280;65265;53.200;6.080;2023-05-07T10:40:10;101920.47;;;17.39;78.39
76434;BME280;65265;53.200;6.080;2023-05-07T10:45:14;101905.63;;;17.94;78.32
76434;BME280;65265;53.200;6.080;2023-05-07T10:50:22;101909.31;;;18.02;77.52
76434;BME280;65265;53.200;6.080;2023-05-07T10:55:21;101911.84;;;18.31;72.30
76434;BME280;65265;53.200;6.080;2023-05-07T11:00:41;101915.38;;;18.33;74.26
76434;BME280;65265;53.200;6.080;2023-05-07T11:05:34;101912.69;;;18.29;72.40
76434;BME280;65265;53.200;6.080;2023-05-07T11:10:47;101916.34;;;18.38;72.80
76434;BME280;65265;53.200;6.080;2023-05-07T11:15:42;101914.06;;;18.50;72.38
76434;BME280;65265;53.200;6.080;2023-05-07T11:20:55;101903.31;;;18.69;71.13
76434;BME280;65265;53.200;6.080;2023-05-07T11:25:47;101907.94;;;18.47;74.46
76434;BME280;65265;53.200;6.080;2023-05-07T11:30:42;101921.50;;;19.08;72.30
76434;BME280;65265;53.200;6.080;2023-05-07T11:35:35;101921.97;;;19.27;71.58
76434;BME280;65265;53.200;6.080;2023-05-07T11:40:26;101915.22;;;19.76;69.98
76434;BME280;65265;53.200;6.080;2023-05-07T11:45:22;101920.56;;;19.84;67.63
76434;BME280;65265;53.200;6.080;2023-05-07T11:50:15;101915.31;;;20.25;66.13
76434;BME280;65265;53.200;6.080;2023-05-07T11:55:07;101912.19;;;20.44;68.84
76434;BME280;65265;53.200;6.080;2023-05-07T12:00:00;101921.69;;;20.42;69.10
76434;BME280;65265;53.200;6.080;2023-05-07T12:04:54;101921.72;;;20.45;67.10
76434;BME280;65265;53.200;6.080;2023-05-07T12:09:47;101923.38;;;19.94;69.71
76434;BME280;65265;53.200;6.080;2023-05-07T12:14:39;101914.38;;;20.20;68.47
76434;BME280;65265;53.200;6.080;2023-05-07T12:19:31;101915.31;;;20.25;67.76
76434;BME280;65265;53.200;6.080;2023-05-07T12:24:22;101922.31;;;20.29;65.94
76434;BME280;65265;53.200;6.080;2023-05-07T12:29:15;101921.06;;;20.57;66.48
76434;BME280;65265;53.200;6.080;2023-05-07T12:34:07;101925.28;;;20.52;66.43
76434;BME280;65265;53.200;6.080;2023-05-07T12:38:59;101928.25;;;20.73;64.91
76434;BME280;65265;53.200;6.080;2023-05-07T12:43:56;101928.84;;;21.10;65.37
76434;BME280;65265;53.200;6.080;2023-05-07T12:48:49;101930.16;;;21.44;61.65
76434;BME280;65265;53.200;6.080;2023-05-07T12:53:40;101920.28;;;21.83;60.91
76434;BME280;65265;53.200;6.080;2023-05-07T12:58:34;101933.28;;;21.81;62.07
76434;BME280;65265;53.200;6.080;2023-05-07T13:03:27;101939.44;;;21.86;61.70
76434;BME280;65265;53.200;6.080;2023-05-07T13:08:28;101938.59;;;21.90;60.50
76434;BME280;65265;53.200;6.080;2023-05-07T13:13:19;101932.34;;;21.75;61.50
76434;BME280;65265;53.200;6.080;2023-05-07T13:18:11;101921.47;;;22.13;60.66
76434;BME280;65265;53.200;6.080;2023-05-07T13:23:03;101918.41;;;22.53;57.98
76434;BME280;65265;53.200;6.080;2023-05-07T13:27:56;101922.09;;;22.80;61.34
76434;BME280;65265;53.200;6.080;2023-05-07T13:32:47;101929.78;;;22.65;57.43
76434;BME280;65265;53.200;6.080;2023-05-07T13:37:40;101924.63;;;22.71;58.72
76434;BME280;65265;53.200;6.080;2023-05-07T13:42:31;101929.41;;;23.29;56.78
76434;BME280;65265;53.200;6.080;2023-05-07T13:47:24;101919.88;;;23.34;57.94
76434;BME280;65265;53.200;6.080;2023-05-07T13:52:16;101911.13;;;23.32;58.49
76434;BME280;65265;53.200;6.080;2023-05-07T13:57:07;101926.84;;;23.43;56.87
76434;BME280;65265;53.200;6.080;2023-05-07T14:01:59;101922.50;;;23.48;56.34
76434;BME280;65265;53.200;6.080;2023-05-07T14:06:51;101920.81;;;23.53;56.16
76434;BME280;65265;53.200;6.080;2023-05-07T14:11:43;101920.69;;;23.30;56.60
76434;BME280;65265;53.200;6.080;2023-05-07T14:16:34;101917.94;;;23.09;58.11
76434;BME280;65265;53.200;6.080;2023-05-07T14:21:25;101913.56;;;23.05;58.98
76434;BME280;65265;53.200;6.080;2023-05-07T14:26:18;101918.88;;;23.16;58.22
76434;BME280;65265;53.200;6.080;2023-05-07T14:31:10;101912.59;;;22.93;56.07
76434;BME280;65265;53.200;6.080;2023-05-07T14:36:02;101910.84;;;22.92;55.72
76434;BME280;65265;53.200;6.080;2023-05-07T14:40:54;101910.28;;;23.32;55.83
76434;BME280;65265;53.200;6.080;2023-05-07T14:45:47;101915.38;;;23.14;57.44
76434;BME280;65265;53.200;6.080;2023-05-07T14:50:40;101920.44;;;22.88;58.78
76434;BME280;65265;53.200;6.080;2023-05-07T14:55:31;101923.88;;;22.86;55.52
76434;BME280;65265;53.200;6.080;2023-05-07T15:00:22;101924.75;;;22.86;56.74
76434;BME280;65265;53.200;6.080;2023-05-07T15:05:15;101934.19;;;22.71;57.46
76434;BME280;65265;53.200;6.080;2023-05-07T15:10:09;101933.34;;;22.76;59.11
76434;BME280;65265;53.200;6.080;2023-05-07T15:15:00;101930.34;;;23.39;59.80
76434;BME280;65265;53.200;6.080;2023-05-07T15:19:52;101939.91;;;23.46;56.83
76434;BME280;65265;53.200;6.080;2023-05-07T15:24:45;101933.72;;;23.24;59.21
76434;BME280;65265;53.200;6.080;2023-05-07T15:29:36;101934.66;;;23.37;58.75
76434;BME280;65265;53.200;6.080;2023-05-07T15:34:28;101929.44;;;23.37;57.31
76434;BME280;65265;53.200;6.080;2023-05-07T15:39:21;101940.69;;;23.22;58.01
76434;BME280;65265;53.200;6.080;2023-05-07T15:44:13;101935.34;;;22.09;60.69
76434;BME280;65265;53.200;6.080;2023-05-07T15:49:05;101937.22;;;21.51;63.24
76434;BME280;65265;53.200;6.080;2023-05-07T15:53:57;101941.41;;;21.40;63.52
76434;BME280;65265;53.200;6.080;2023-05-07T15:58:48;101940.31;;;21.24;62.80
76434;BME280;65265;53.200;6.080;2023-05-07T16:03:41;101945.75;;;21.39;64.40
76434;BME280;65265;53.200;6.080;2023-05-07T16:08:33;101947.44;;;21.36;62.81
76434;BME280;65265;53.200;6.080;2023-05-07T16:13:24;101951.75;;;21.35;63.21
76434;BME280;65265;53.200;6.080;2023-05-07T16:18:15;101948.09;;;21.21;63.15
76434;BME280;65265;53.200;6.080;2023-05-07T16:23:08;101953.69;;;20.90;63.57
76434;BME280;65265;53.200;6.080;2023-05-07T16:28:02;101956.88;;;20.76;67.15
76434;BME280;65265;53.200;6.080;2023-05-07T16:32:53;101961.81;;;20.59;65.01
76434;BME280;65265;53.200;6.080;2023-05-07T16:37:44;101972.13;;;20.53;65.14
76434;BME280;65265;53.200;6.080;2023-05-07T16:42:37;101962.56;;;20.52;66.07
76434;BME280;65265;53.200;6.080;2023-05-07T16:47:29;101958.84;;;20.37;66.49
76434;BME280;65265;53.200;6.080;2023-05-07T16:52:21;101949.19;;;20.31;65.98
76434;BME280;65265;53.200;6.080;2023-05-07T16:57:12;101962.59;;;20.08;66.51
76434;BME280;65265;53.200;6.080;2023-05-07T17:02:05;101960.00;;;20.08;66.93
76434;BME280;65265;53.200;6.080;2023-05-07T17:06:57;101954.59;;;19.99;66.91
76434;BME280;65265;53.200;6.080;2023-05-07T17:11:48;101957.56;;;19.72;67.04
76434;BME280;65265;53.200;6.080;2023-05-07T17:16:39;101968.28;;;19.49;69.59
76434;BME280;65265;53.200;6.080;2023-05-07T17:21:32;101973.97;;;19.32;70.68
76434;BME280;65265;53.200;6.080;2023-05-07T17:26:24;101971.16;;;19.23;69.83
76434;BME280;65265;53.200;6.080;2023-05-07T17:31:16;101974.97;;;19.03;70.73
76434;BME280;65265;53.200;6.080;2023-05-07T17:36:08;101971.19;;;18.89;69.76
76434;BME280;65265;53.200;6.080;2023-05-07T17:41:01;101971.59;;;18.71;72.11
76434;BME280;65265;53.200;6.080;2023-05-07T17:45:52;101988.78;;;18.68;71.96
76434;BME280;65265;53.200;6.080;2023-05-07T17:50:44;101977.84;;;18.45;71.36
76434;BME280;65265;53.200;6.080;2023-05-07T17:55:40;101987.09;;;18.36;72.13
76434;BME280;65265;53.200;6.080;2023-05-07T18:00:33;101994.41;;;18.21;74.50
76434;BME280;65265;53.200;6.080;2023-05-07T18:05:25;101999.28;;;18.09;72.55
76434;BME280;65265;53.200;6.080;2023-05-07T18:10:17;102008.38;;;17.95;72.29
76434;BME280;65265;53.200;6.080;2023-05-07T18:15:08;102006.50;;;17.89;71.93
76434;BME280;65265;53.200;6.080;2023-05-07T18:20:01;102014.25;;;17.61;72.92
76434;BME280;65265;53.200;6.080;2023-05-07T18:24:55;102019.69;;;17.42;74.37
76434;BME280;65265;53.200;6.080;2023-05-07T18:29:46;102019.56;;;17.38;73.44
76434;BME280;65265;53.200;6.080;2023-05-07T18:34:37;102025.97;;;17.22;74.55
76434;BME280;65265;53.200;6.080;2023-05-07T18:39:31;102024.59;;;17.07;75.21
76434;BME280;65265;53.200;6.080;2023-05-07T18:44:22;102033.69;;;16.96;76.29
76434;BME280;65265;53.200;6.080;2023-05-07T18:49:13;102023.88;;;16.86;76.96
76434;BME280;65265;53.200;6.080;2023-05-07T18:54:05;102027.66;;;16.71;76.97
76434;BME280;65265;53.200;6.080;2023-05-07T18:58:58;102039.34;;;16.60;79.38
76434;BME280;65265;53.200;6.080;2023-05-07T19:03:50;102046.84;;;16.54;79.35
76434;BME280;65265;53.200;6.080;2023-05-07T19:08:41;102044.78;;;16.44;79.25
76434;BME280;65265;53.200;6.080;2023-05-07T19:13:33;102060.53;;;16.28;79.82
76434;BME280;65265;53.200;6.080;2023-05-07T19:18:27;102057.16;;;16.07;81.15
76434;BME280;65265;53.200;6.080;2023-05-07T19:23:21;102059.31;;;15.95;81.28
76434;BME280;65265;53.200;6.080;2023-05-07T19:28:12;102068.16;;;15.79;81.34
76434;BME280;65265;53.200;6.080;2023-05-07T19:33:04;102067.88;;;15.72;81.48
76434;BME280;65265;53.200;6.080;2023-05-07T19:37:56;102072.63;;;15.61;81.93
76434;BME280;65265;53.200;6.080;2023-05-07T19:42:48;102086.91;;;15.53;82.17
76434;BME280;65265;53.200;6.080;2023-05-07T19:47:39;102087.91;;;15.35;82.92
76434;BME280;65265;53.200;6.080;2023-05-07T19:52:31;102083.06;;;15.23;82.74
76434;BME280;65265;53.200;6.080;2023-05-07T19:57:24;102093.81;;;15.13;83.31
76434;BME280;65265;53.200;6.080;2023-05-07T20:02:15;102102.56;;;14.96;83.43
76434;BME280;65265;53.200;6.080;2023-05-07T20:07:07;102098.09;;;14.92;83.57
76434;BME280;65265;53.200;6.080;2023-05-07T20:11:58;102110.41;;;14.79;83.66
76434;BME280;65265;53.200;6.080;2023-05-07T20:16:51;102112.59;;;14.70;84.62
76434;BME280;65265;53.200;6.080;2023-05-07T20:21:43;102112.38;;;14.65;84.42
76434;BME280;65265;53.200;6.080;2023-05-07T20:26:34;102121.53;;;14.59;84.83
76434;BME280;65265;53.200;6.080;2023-05-07T20:31:25;102121.34;;;14.54;85.41
76434;BME280;65265;53.200;6.080;2023-05-07T20:36:18;102127.94;;;14.49;85.21
76434;BME280;65265;53.200;6.080;2023-05-07T20:41:10;102123.50;;;14.45;85.28
76434;BME280;65265;53.200;6.080;2023-05-07T20:46:03;102125.66;;;14.37;85.74
76434;BME280;65265;53.200;6.080;2023-05-07T20:50:56;102127.97;;;14.31;85.70
76434;BME280;65265;53.200;6.080;2023-05-07T20:55:51;102135.56;;;14.28;87.07
76434;BME280;65265;53.200;6.080;2023-05-07T21:00:42;102132.63;;;14.20;86.59
76434;BME280;65265;53.200;6.080;2023-05-07T21:05:34;102138.31;;;14.15;87.07
76434;BME280;65265;53.200;6.080;2023-05-07T21:10:25;102142.47;;;14.11;87.14
76434;BME280;65265;53.200;6.080;2023-05-07T21:15:18;102144.63;;;14.02;87.80
76434;BME280;65265;53.200;6.080;2023-05-07T21:20:10;102147.72;;;13.95;87.21
76434;BME280;65265;53.200;6.080;2023-05-07T21:25:01;102150.88;;;13.90;88.14
76434;BME280;65265;53.200;6.080;2023-05-07T21:29:53;102156.91;;;13.90;86.67
76434;BME280;65265;53.200;6.080;2023-05-07T21:34:49;102157.72;;;13.89;86.50
76434;BME280;65265;53.200;6.080;2023-05-07T21:39:40;102159.91;;;13.82;86.75
76434;BME280;65265;53.200;6.080;2023-05-07T21:44:32;102156.34;;;13.78;86.77
76434;BME280;65265;53.200;6.080;2023-05-07T21:49:23;102166.22;;;13.71;86.76
76434;BME280;65265;53.200;6.080;2023-05-07T21:54:16;102163.25;;;13.62;87.71
76434;BME280;65265;53.200;6.080;2023-05-07T21:59:08;102170.72;;;13.57;87.80
76434;BME280;65265;53.200;6.080;2023-05-07T22:03:59;102175.78;;;13.56;86.46
76434;BME280;65265;53.200;6.080;2023-05-07T22:08:51;102170.41;;;13.51;86.12
76434;BME280;65265;53.200;6.080;2023-05-07T22:13:44;102175.56;;;13.51;85.89
76434;BME280;65265;53.200;6.080;2023-05-07T22:18:35;102173.56;;;13.46;86.32
76434;BME280;65265;53.200;6.080;2023-05-07T22:23:26;102172.03;;;13.49;85.68
76434;BME280;65265;53.200;6.080;2023-05-07T22:28:18;102171.44;;;13.37;84.86
76434;BME280;65265;53.200;6.080;2023-05-07T22:33:11;102175.84;;;13.40;83.80
76434;BME280;65265;53.200;6.080;2023-05-07T22:38:03;102173.63;;;13.30;83.47
76434;BME280;65265;53.200;6.080;2023-05-07T22:42:54;102171.47;;;13.21;83.79
76434;BME280;65265;53.200;6.080;2023-05-07T22:47:46;102172.13;;;13.17;83.42
76434;BME280;65265;53.200;6.080;2023-05-07T22:52:39;102168.63;;;12.99;84.82
76434;BME280;65265;53.200;6.080;2023-05-07T22:57:31;102179.13;;;12.88;85.47
76434;BME280;65265;53.200;6.080;2023-05-07T23:02:22;102185.78;;;12.84;85.65
76434;BME280;65265;53.200;6.080;2023-05-07T23:07:15;102182.97;;;12.80;84.73
76434;BME280;65265;53.200;6.080;2023-05-07T23:12:08;102180.75;;;12.70;85.21
76434;BME280;65265;53.200;6.080;2023-05-07T23:17:00;102171.53;;;12.57;86.36
76434;BME280;65265;53.200;6.080;2023-05-07T23:21:51;102176.28;;;12.50;86.62
76434;BME280;65265;53.200;6.080;2023-05-07T23:26:43;102173.38;;;12.44;87.41
76434;BME280;65265;53.200;6.080;2023-05-07T23:31:36;102178.25;;;12.39;87.05
76434;BME280;65265;53.200;6.080;2023-05-07T23:36:27;102173.53;;;12.31;87.93
76434;BME280;65265;53.200;6.080;2023-05-07T23:41:19;102179.25;;;12.27;88.68
76434;BME280;65265;53.200;6.080;2023-05-07T23:46:10;102184.19;;;12.22;88.73
76434;BME280;65265;53.200;6.080;2023-05-07T23:51:03;102187.19;;;12.15;88.71
76434;BME280;65265;53.200;6.080;2023-05-07T23:55:55;102190.56;;;12.14;88.24
